Time;durP1;ratioP1;P1;durP2;ratioP2;P2;SDS_P1;SDS_P2;PMS_P1;PMS_P2;Temp;Humidity;BMP_temperature;BMP_pressure;BME280_temperature;BME280_humidity;BME280_pressure;Samples;Min_cycle;Max_cycle;Signal;HPM_P1;HPM_P2
2021/11/13 00:03:21;;;;;;;28.25;19.20;;;;;;;;;;10278985;28;20080;-67
2021/11/13 00:08:19;;;;;;;30.00;21.25;;;;;;;;;;10281194;28;20087;-67
2021/11/13 00:13:20;;;;;;;27.20;21.25;;;;;;;;;;10315538;28;20102;-67
2021/11/13 00:18:20;;;;;;;27.25;20.17;;;;;;;;;;10315218;28;20056;-66
2021/11/13 00:23:19;;;;;;;29.48;21.90;;;;;;;;;;10297234;28;20080;-65
2021/11/13 00:28:17;;;;;;;28.15;23.60;;;;;;;;;;10299302;28;20065;-66
2021/11/13 00:33:16;;;;;;;31.90;24.83;;;;;;;;;;10277067;28;20087;-66
2021/11/13 00:38:16;;;;;;;28.40;22.88;;;;;;;;;;10276485;28;20488;-66
2021/11/13 00:43:14;;;;;;;33.97;20.25;;;;;;;;;;10278295;28;20068;-66
2021/11/13 00:48:12;;;;;;;27.67;19.95;;;;;;;;;;10276889;28;20506;-67
2021/11/13 00:53:16;;;;;;;21.00;17.08;;;;;;;;;;10274106;28;20431;-66
2021/11/13 00:58:16;;;;;;;24.05;19.05;;;;;;;;;;10273010;28;20071;-66
2021/11/13 01:03:14;;;;;;;34.50;24.88;;;;;;;;;;10277488;28;20065;-66
2021/11/13 01:08:12;;;;;;;45.65;30.58;;;;;;;;;;10277018;28;20065;-66
2021/11/13 01:13:11;;;;;;;47.13;29.88;;;;;;;;;;10276955;28;20521;-65
2021/11/13 01:18:13;;;;;;;43.55;30.67;;;;;;;;;;10273374;28;20099;-66
2021/11/13 01:23:12;;;;;;;42.17;30.15;;;;;;;;;;10273130;28;20072;-65
2021/11/13 01:28:10;;;;;;;33.00;24.40;;;;;;;;;;10276154;28;20065;-67
2021/11/13 01:33:08;;;;;;;37.00;23.00;;;;;;;;;;10276159;28;20091;-67
2021/11/13 01:38:08;;;;;;;29.15;22.92;;;;;;;;;;10276650;28;20080;-67
2021/11/13 01:43:06;;;;;;;42.42;26.95;;;;;;;;;;10272824;28;20509;-67
2021/11/13 01:48:05;;;;;;;68.97;47.58;;;;;;;;;;10273291;28;20071;-67
2021/11/13 01:53:04;;;;;;;61.80;44.55;;;;;;;;;;10273215;28;20079;-67
2021/11/13 01:58:04;;;;;;;90.68;58.40;;;;;;;;;;10272812;28;20077;-67
2021/11/13 02:03:03;;;;;;;64.25;45.95;;;;;;;;;;10274340;28;20068;-67
2021/11/13 02:08:02;;;;;;;56.47;39.35;;;;;;;;;;10277193;28;20473;-67
2021/11/13 02:13:00;;;;;;;50.03;37.95;;;;;;;;;;10277064;28;20425;-67
2021/11/13 02:18:00;;;;;;;102.70;33.63;;;;;;;;;;10280400;28;20065;-67
2021/11/13 02:23:01;;;;;;;54.55;36.38;;;;;;;;;;10278674;28;20076;-67
2021/11/13 02:28:00;;;;;;;57.28;36.00;;;;;;;;;;10273889;28;20075;-67
2021/11/13 02:32:58;;;;;;;50.13;36.70;;;;;;;;;;10283072;28;20049;-66
2021/11/13 02:37:56;;;;;;;48.63;34.90;;;;;;;;;;10281282;28;20510;-67
2021/11/13 02:43:00;;;;;;;46.72;31.52;;;;;;;;;;10280147;28;20067;-67
2021/11/13 02:48:01;;;;;;;46.85;34.85;;;;;;;;;;10275868;28;20057;-66
2021/11/13 02:53:00;;;;;;;48.13;33.78;;;;;;;;;;10277288;28;20635;-66
2021/11/13 02:58:00;;;;;;;76.80;48.78;;;;;;;;;;10272877;28;20469;-67
2021/11/13 03:02:58;;;;;;;73.60;42.72;;;;;;;;;;10275516;28;20072;-67
2021/11/13 03:07:58;;;;;;;57.72;36.97;;;;;;;;;;10275030;28;20061;-66
2021/11/13 03:12:56;;;;;;;67.82;39.88;;;;;;;;;;10276238;28;20064;-67
2021/11/13 03:17:57;;;;;;;73.47;41.50;;;;;;;;;;10273402;28;20498;-67
2021/11/13 03:22:56;;;;;;;65.00;35.25;;;;;;;;;;10278429;28;20083;-66
2021/11/13 03:27:55;;;;;;;89.40;39.58;;;;;;;;;;10279013;28;20518;-66
2021/11/13 03:32:53;;;;;;;61.78;40.00;;;;;;;;;;10280627;28;20776;-66
2021/11/13 03:37:53;;;;;;;90.45;53.45;;;;;;;;;;10277255;28;20080;-66
2021/11/13 03:42:51;;;;;;;101.75;53.20;;;;;;;;;;10277824;28;20065;-67
2021/11/13 03:47:51;;;;;;;85.40;51.83;;;;;;;;;;10275835;28;20051;-66
2021/11/13 03:52:49;;;;;;;57.33;35.35;;;;;;;;;;10271346;28;20531;-66
2021/11/13 03:57:52;;;;;;;34.40;19.27;;;;;;;;;;10273299;28;20463;-66
2021/11/13 04:02:51;;;;;;;25.13;18.05;;;;;;;;;;10276672;28;20084;-67
2021/11/13 04:07:51;;;;;;;35.92;18.40;;;;;;;;;;10280469;28;20068;-66
2021/11/13 04:12:49;;;;;;;34.78;17.98;;;;;;;;;;10284329;28;20104;-66
2021/11/13 04:17:49;;;;;;;114.32;22.60;;;;;;;;;;10281940;28;20118;-67
2021/11/13 04:22:48;;;;;;;66.13;20.33;;;;;;;;;;10278975;28;20069;-67
2021/11/13 04:27:46;;;;;;;61.55;26.15;;;;;;;;;;10277526;28;20088;-67
2021/11/13 04:32:46;;;;;;;58.28;27.15;;;;;;;;;;10281392;28;20072;-66
2021/11/13 04:37:46;;;;;;;69.07;25.45;;;;;;;;;;10283813;28;20076;-66
2021/11/13 04:42:45;;;;;;;42.38;19.92;;;;;;;;;;10279985;28;20076;-66
2021/11/13 04:47:44;;;;;;;103.20;19.95;;;;;;;;;;10278913;28;20068;-66
2021/11/13 04:52:42;;;;;;;119.80;20.83;;;;;;;;;;10279609;28;20136;-66
2021/11/13 04:57:42;;;;;;;43.53;18.65;;;;;;;;;;10285257;28;20075;-66
2021/11/13 05:02:47;;;;;;;86.07;31.70;;;;;;;;;;10283086;28;20065;-66
2021/11/13 05:07:45;;;;;;;97.55;20.50;;;;;;;;;;10280327;28;20069;-67
2021/11/13 05:12:45;;;;;;;43.47;24.67;;;;;;;;;;10277283;28;20506;-67
2021/11/13 05:17:47;;;;;;;95.22;20.88;;;;;;;;;;10279418;28;20073;-67
2021/11/13 05:22:47;;;;;;;81.53;17.73;;;;;;;;;;10286429;28;20049;-65
2021/11/13 05:27:47;;;;;;;48.67;19.23;;;;;;;;;;10275552;28;20072;-65
2021/11/13 05:32:45;;;;;;;134.95;22.40;;;;;;;;;;10275606;28;20081;-67
2021/11/13 05:37:43;;;;;;;83.00;17.02;;;;;;;;;;10277730;28;20095;-67
2021/11/13 05:42:42;;;;;;;100.90;17.98;;;;;;;;;;10278962;28;20425;-66
2021/11/13 05:47:42;;;;;;;49.13;26.85;;;;;;;;;;10278924;28;20077;-67
2021/11/13 05:52:41;;;;;;;51.83;22.63;;;;;;;;;;10279093;28;20068;-66
2021/11/13 05:57:40;;;;;;;73.93;33.03;;;;;;;;;;10277178;28;20076;-66
2021/11/13 06:02:38;;;;;;;87.85;42.20;;;;;;;;;;10275181;28;20516;-67
2021/11/13 06:07:38;;;;;;;107.10;43.08;;;;;;;;;;10274370;28;20431;-66
2021/11/13 06:12:36;;;;;;;112.63;53.50;;;;;;;;;;10275957;28;20068;-66
2021/11/13 06:17:35;;;;;;;121.05;70.38;;;;;;;;;;10276779;28;20462;-66
2021/11/13 06:22:34;;;;;;;139.32;66.70;;;;;;;;;;10279265;28;20076;-65
2021/11/13 06:27:37;;;;;;;123.80;56.25;;;;;;;;;;10276418;28;20077;-66
2021/11/13 06:32:36;;;;;;;110.68;50.80;;;;;;;;;;10276638;28;20073;-67
2021/11/13 06:37:34;;;;;;;108.18;50.60;;;;;;;;;;10276673;28;20072;-67
2021/11/13 06:42:33;;;;;;;111.63;52.80;;;;;;;;;;10274024;28;20079;-67
2021/11/13 06:47:33;;;;;;;100.70;51.42;;;;;;;;;;10272872;28;20100;-66
2021/11/13 06:52:36;;;;;;;;;;;;;;;;;;10273979;28;20076;-67
2021/11/13 06:57:34;;;;;;;67.32;40.42;;;;;;;;;;10280043;28;19921;-66
2021/11/13 07:02:34;;;;;;;76.70;41.95;;;;;;;;;;10280989;28;20568;-66
2021/11/13 07:07:33;;;;;;;93.07;45.78;;;;;;;;;;10287175;28;20453;-66
2021/11/13 07:12:31;;;;;;;117.38;62.13;;;;;;;;;;10282894;28;20117;-66
2021/11/13 07:17:30;;;;;;;79.00;39.47;;;;;;;;;;10284744;28;20075;-67
2021/11/13 07:22:29;;;;;;;79.78;41.85;;;;;;;;;;10289865;28;20077;-67
2021/11/13 07:27:28;;;;;;;86.10;47.03;;;;;;;;;;10277960;28;20439;-66
2021/11/13 07:32:26;;;;;;;81.50;42.22;;;;;;;;;;10278356;28;20084;-66
2021/11/13 07:37:25;;;;;;;79.28;45.47;;;;;;;;;;10277757;28;20513;-66
2021/11/13 07:42:25;;;;;;;78.22;42.65;;;;;;;;;;10278945;28;20079;-66
2021/11/13 07:47:23;;;;;;;76.78;42.47;;;;;;;;;;10280809;28;20064;-66
2021/11/13 07:52:22;;;;;;;89.43;46.85;;;;;;;;;;10286439;28;20060;-66
2021/11/13 07:57:20;;;;;;;77.80;45.33;;;;;;;;;;10283581;28;20072;-65
2021/11/13 08:02:19;;;;;;;129.65;78.00;;;;;;;;;;10278143;28;20541;-66
2021/11/13 08:07:18;;;;;;;152.10;90.85;;;;;;;;;;10285271;28;20068;-66
2021/11/13 08:12:21;;;;;;;123.15;67.05;;;;;;;;;;10311775;28;20075;-66
2021/11/13 08:17:20;;;;;;;124.55;67.45;;;;;;;;;;10317473;28;20091;-66
2021/11/13 08:22:19;;;;;;;133.80;73.55;;;;;;;;;;10309271;28;20064;-66
2021/11/13 08:27:20;;;;;;;123.00;73.32;;;;;;;;;;10278196;28;20067;-66
2021/11/13 08:32:19;;;;;;;107.32;66.15;;;;;;;;;;10296074;28;20088;-66
2021/11/13 08:37:20;;;;;;;47.72;26.73;;;;;;;;;;10301117;28;20079;-66
2021/11/13 08:42:18;;;;;;;39.05;25.95;;;;;;;;;;10281845;28;20091;-66
2021/11/13 08:47:17;;;;;;;48.42;29.70;;;;;;;;;;10276300;28;20071;-66
2021/11/13 08:52:16;;;;;;;49.65;29.65;;;;;;;;;;10279965;28;20404;-66
2021/11/13 08:57:16;;;;;;;38.53;25.42;;;;;;;;;;10277059;28;20068;-66
2021/11/13 09:02:17;;;;;;;48.90;35.47;;;;;;;;;;10275497;28;20061;-66
2021/11/13 09:07:16;;;;;;;40.22;23.38;;;;;;;;;;10279304;28;20060;-67
2021/11/13 09:12:21;;;;;;;42.35;29.08;;;;;;;;;;10280213;28;20087;-65
2021/11/13 09:17:20;;;;;;;34.67;23.05;;;;;;;;;;10281813;28;20064;-65
2021/11/13 09:22:18;;;;;;;71.20;32.75;;;;;;;;;;10276233;28;20458;-66
2021/11/13 09:27:18;;;;;;;64.25;39.55;;;;;;;;;;10273715;28;20072;-66
2021/11/13 09:32:20;;;;;;;57.65;34.70;;;;;;;;;;10282527;28;20107;-68
2021/11/13 09:37:20;;;;;;;86.25;45.67;;;;;;;;;;10273015;28;20068;-67
2021/11/13 09:42:20;;;;;;;52.80;29.45;;;;;;;;;;10271914;28;20510;-66
2021/11/13 09:47:19;;;;;;;105.05;55.47;;;;;;;;;;10280182;28;20076;-65
2021/11/13 09:52:17;;;;;;;137.52;75.80;;;;;;;;;;10274923;28;20068;-66
2021/11/13 09:57:16;;;;;;;89.22;52.72;;;;;;;;;;10278647;28;20069;-65
2021/11/13 10:02:16;;;;;;;79.53;44.15;;;;;;;;;;10280656;28;20061;-66
2021/11/13 10:07:14;;;;;;;84.72;42.88;;;;;;;;;;10279220;28;20068;-66
2021/11/13 10:12:12;;;;;;;79.78;42.88;;;;;;;;;;10274258;28;20083;-65
2021/11/13 10:17:20;;;;;;;73.22;43.90;;;;;;;;;;10269963;28;20068;-66
2021/11/13 10:22:19;;;;;;;83.70;44.70;;;;;;;;;;10261700;28;20065;-66
2021/11/13 10:27:17;;;;;;;81.13;44.90;;;;;;;;;;10264931;28;20399;-66
2021/11/13 10:32:17;;;;;;;86.05;46.97;;;;;;;;;;10275502;28;20355;-66
2021/11/13 10:37:19;;;;;;;134.23;79.95;;;;;;;;;;10276518;28;20515;-67
2021/11/13 10:42:18;;;;;;;93.50;55.13;;;;;;;;;;10279530;28;20506;-66
2021/11/13 10:47:18;;;;;;;68.68;41.45;;;;;;;;;;10278789;28;20081;-67
2021/11/13 10:52:18;;;;;;;105.50;62.60;;;;;;;;;;10280736;28;20069;-66
2021/11/13 10:57:24;;;;;;;97.47;57.83;;;;;;;;;;10281446;28;20065;-66
2021/11/13 11:02:24;;;;;;;83.75;43.33;;;;;;;;;;10284054;28;20064;-66
2021/11/13 11:07:25;;;;;;;81.25;46.65;;;;;;;;;;10284150;28;20419;-66
2021/11/13 11:12:27;;;;;;;77.00;44.85;;;;;;;;;;10278973;28;20071;-65
2021/11/13 11:17:27;;;;;;;82.93;44.70;;;;;;;;;;10279055;28;20076;-65
2021/11/13 11:22:28;;;;;;;63.28;41.00;;;;;;;;;;10280684;28;20072;-66
2021/11/13 11:27:27;;;;;;;82.85;49.88;;;;;;;;;;10278594;28;20072;-67
2021/11/13 11:32:27;;;;;;;81.20;46.63;;;;;;;;;;10278065;28;20084;-67
2021/11/13 11:37:28;;;;;;;59.55;36.30;;;;;;;;;;10281366;28;20071;-67
2021/11/13 11:42:27;;;;;;;66.05;37.22;;;;;;;;;;10286002;28;20033;-67
2021/11/13 11:47:25;;;;;;;54.33;31.38;;;;;;;;;;10278321;28;20466;-67
2021/11/13 11:52:25;;;;;;;51.80;34.05;;;;;;;;;;10280701;28;20523;-67
2021/11/13 11:57:26;;;;;;;57.42;34.63;;;;;;;;;;10284895;28;20068;-67
2021/11/13 12:02:25;;;;;;;58.42;40.38;;;;;;;;;;10286455;28;20079;-66
2021/11/13 12:07:31;;;;;;;172.45;93.10;;;;;;;;;;10287730;28;20422;-67
2021/11/13 12:12:30;;;;;;;116.28;65.72;;;;;;;;;;10280906;28;20072;-66
2021/11/13 12:17:31;;;;;;;50.90;31.13;;;;;;;;;;10281162;28;20041;-66
2021/11/13 12:22:34;;;;;;;53.55;32.28;;;;;;;;;;10281910;28;20068;-67
2021/11/13 12:27:34;;;;;;;51.28;33.75;;;;;;;;;;10286586;28;20076;-66
2021/11/13 12:32:35;;;;;;;55.67;33.05;;;;;;;;;;10284678;28;20100;-67
2021/11/13 12:37:34;;;;;;;45.70;29.45;;;;;;;;;;10277507;28;20079;-66
2021/11/13 12:42:34;;;;;;;55.38;35.65;;;;;;;;;;10279885;28;20091;-67
2021/11/13 12:47:34;;;;;;;32.20;22.48;;;;;;;;;;10281070;28;20075;-67
2021/11/13 12:52:41;;;;;;;71.63;42.35;;;;;;;;;;10286421;28;20071;-66
2021/11/13 12:57:41;;;;;;;32.95;22.63;;;;;;;;;;10281541;28;20089;-68
2021/11/13 13:02:44;;;;;;;27.25;19.95;;;;;;;;;;10283102;28;20044;-65
2021/11/13 13:07:49;;;;;;;33.85;22.15;;;;;;;;;;10284873;28;20177;-66
2021/11/13 13:12:58;;;;;;;63.30;42.70;;;;;;;;;;10275940;28;20439;-66
2021/11/13 13:17:58;;;;;;;41.72;28.23;;;;;;;;;;10276726;28;20496;-66
2021/11/13 13:23:00;;;;;;;45.60;31.13;;;;;;;;;;10279066;28;20478;-67
2021/11/13 13:28:01;;;;;;;47.53;34.17;;;;;;;;;;10299050;28;20491;-66
2021/11/13 13:33:00;;;;;;;45.55;30.20;;;;;;;;;;10278812;28;20080;-67
2021/11/13 13:38:01;;;;;;;56.92;36.25;;;;;;;;;;10280195;28;20481;-67
2021/11/13 13:43:01;;;;;;;61.78;45.40;;;;;;;;;;10288659;28;20095;-67
2021/11/13 13:48:00;;;;;;;69.22;49.40;;;;;;;;;;10311947;28;20078;-67
2021/11/13 13:52:58;;;;;;;53.45;35.63;;;;;;;;;;10312619;28;20075;-67
2021/11/13 13:57:58;;;;;;;58.92;36.33;;;;;;;;;;10290123;28;20071;-67
2021/11/13 14:02:58;;;;;;;64.78;39.10;;;;;;;;;;10277292;28;20174;-67
2021/11/13 14:08:07;;;;;;;88.50;51.33;;;;;;;;;;10282258;28;20437;-67
2021/11/13 14:13:05;;;;;;;76.78;43.47;;;;;;;;;;10311876;28;20071;-67
2021/11/13 14:18:06;;;;;;;81.32;45.30;;;;;;;;;;10296793;28;20076;-67
2021/11/13 14:23:06;;;;;;;86.00;46.03;;;;;;;;;;10273799;28;20073;-67
2021/11/13 14:28:05;;;;;;;101.25;61.20;;;;;;;;;;10274483;28;20060;-67
2021/11/13 14:33:03;;;;;;;94.40;56.00;;;;;;;;;;10269970;28;20087;-67
2021/11/13 14:38:06;;;;;;;96.32;54.83;;;;;;;;;;10300531;28;20081;-67
2021/11/13 14:43:19;;;;;;;97.25;52.33;;;;;;;;;;10272004;28;20072;-67
2021/11/13 14:48:18;;;;;;;65.65;40.08;;;;;;;;;;10280558;28;20076;-68
2021/11/13 14:53:25;;;;;;;71.13;45.03;;;;;;;;;;10269935;28;20072;-67
2021/11/13 14:58:27;;;;;;;80.00;51.65;;;;;;;;;;10269946;28;20478;-67
2021/11/13 15:03:28;;;;;;;65.25;37.10;;;;;;;;;;10269019;28;20140;-67
2021/11/13 15:08:29;;;;;;;77.45;41.97;;;;;;;;;;10278733;28;20072;-66
2021/11/13 15:13:29;;;;;;;86.90;42.33;;;;;;;;;;10270320;28;20083;-67
2021/11/13 15:18:31;;;;;;;91.53;49.78;;;;;;;;;;10277846;28;20064;-67
2021/11/13 15:23:31;;;;;;;112.25;59.88;;;;;;;;;;10279145;28;20073;-68
2021/11/13 15:28:30;;;;;;;150.70;82.95;;;;;;;;;;10281839;28;20483;-67
2021/11/13 15:33:30;;;;;;;135.20;83.53;;;;;;;;;;10277514;28;20091;-66
2021/11/13 15:38:30;;;;;;;98.18;63.05;;;;;;;;;;10281254;28;20076;-65
2021/11/13 15:43:31;;;;;;;215.73;147.63;;;;;;;;;;10287318;28;20061;-65
2021/11/13 15:48:30;;;;;;;196.25;126.85;;;;;;;;;;10282885;28;20079;-66
2021/11/13 15:53:40;;;;;;;114.53;74.03;;;;;;;;;;10287384;28;20071;-66
2021/11/13 15:58:40;;;;;;;102.93;57.05;;;;;;;;;;10271372;28;20075;-66
2021/11/13 16:03:38;;;;;;;141.80;79.43;;;;;;;;;;10269610;28;20371;-66
2021/11/13 16:08:37;;;;;;;173.95;102.15;;;;;;;;;;10270038;28;20064;-66
2021/11/13 16:13:37;;;;;;;124.10;71.97;;;;;;;;;;10272713;28;20063;-65
2021/11/13 16:18:37;;;;;;;114.47;63.70;;;;;;;;;;10275157;28;20071;-65
2021/11/13 16:23:36;;;;;;;109.72;55.60;;;;;;;;;;10278864;28;20075;-66
2021/11/13 16:28:35;;;;;;;95.90;53.03;;;;;;;;;;10279634;28;20510;-65
2021/11/13 16:33:36;;;;;;;163.77;88.43;;;;;;;;;;10279359;28;20083;-66
2021/11/13 16:38:37;;;;;;;109.18;59.88;;;;;;;;;;10284701;28;20072;-66
2021/11/13 16:43:36;;;;;;;115.22;59.85;;;;;;;;;;10280134;28;20083;-65
2021/11/13 16:48:36;;;;;;;107.85;57.40;;;;;;;;;;10280465;28;20072;-66
2021/11/13 16:53:37;;;;;;;130.15;68.35;;;;;;;;;;10277808;28;20076;-67
2021/11/13 16:58:36;;;;;;;112.95;51.38;;;;;;;;;;10278969;28;20472;-67
2021/11/13 17:03:35;;;;;;;107.70;47.38;;;;;;;;;;10278008;28;20447;-65
2021/11/13 17:08:33;;;;;;;132.95;61.15;;;;;;;;;;10278323;28;20060;-66
2021/11/13 17:13:33;;;;;;;106.15;51.13;;;;;;;;;;10276344;28;21147;-66
2021/11/13 17:18:32;;;;;;;95.65;48.25;;;;;;;;;;10273133;28;20473;-67
2021/11/13 17:23:30;;;;;;;132.90;78.55;;;;;;;;;;10276244;28;20473;-65
2021/11/13 17:28:28;;;;;;;227.77;124.75;;;;;;;;;;10285867;28;20076;-66
2021/11/13 17:33:28;;;;;;;130.40;65.60;;;;;;;;;;10280030;28;20084;-66
2021/11/13 17:38:26;;;;;;;132.07;73.32;;;;;;;;;;10276962;28;20075;-66
2021/11/13 17:43:25;;;;;;;105.68;53.65;;;;;;;;;;10278064;28;20475;-66
2021/11/13 17:48:23;;;;;;;117.63;59.08;;;;;;;;;;10276864;28;20554;-66
2021/11/13 17:53:23;;;;;;;103.47;50.13;;;;;;;;;;10281143;28;20068;-66
2021/11/13 17:58:21;;;;;;;123.88;61.83;;;;;;;;;;10275794;28;20068;-67
2021/11/13 18:03:21;;;;;;;109.20;54.67;;;;;;;;;;10284253;28;20044;-66
2021/11/13 18:08:20;;;;;;;138.35;66.97;;;;;;;;;;10281115;28;20080;-66
2021/11/13 18:13:20;;;;;;;131.18;55.13;;;;;;;;;;10281232;28;20136;-67
2021/11/13 18:18:22;;;;;;;159.35;66.10;;;;;;;;;;10275958;28;20072;-67
2021/11/13 18:23:20;;;;;;;133.20;55.35;;;;;;;;;;10272846;28;20521;-66
2021/11/13 18:28:21;;;;;;;159.23;88.22;;;;;;;;;;10279830;28;20040;-66
2021/11/13 18:33:23;;;;;;;135.32;67.63;;;;;;;;;;10291209;28;20545;-66
2021/11/13 18:38:21;;;;;;;168.35;74.57;;;;;;;;;;10278754;28;20076;-65
2021/11/13 18:43:21;;;;;;;149.15;64.85;;;;;;;;;;10277038;28;20076;-66
2021/11/13 18:48:21;;;;;;;140.23;63.70;;;;;;;;;;10277103;28;20420;-66
2021/11/13 18:53:20;;;;;;;119.05;51.53;;;;;;;;;;10280091;28;20068;-66
2021/11/13 18:58:19;;;;;;;137.82;65.88;;;;;;;;;;10284657;28;20077;-66
2021/11/13 19:03:19;;;;;;;168.63;63.47;;;;;;;;;;10281783;28;20069;-66
2021/11/13 19:08:18;;;;;;;174.45;61.08;;;;;;;;;;10286163;28;20587;-65
2021/11/13 19:13:17;;;;;;;128.88;49.65;;;;;;;;;;10283612;28;20081;-65
2021/11/13 19:18:16;;;;;;;118.38;51.22;;;;;;;;;;10280577;28;20525;-66
2021/11/13 19:23:16;;;;;;;123.45;54.75;;;;;;;;;;10280901;28;20056;-65
2021/11/13 19:28:15;;;;;;;141.18;56.28;;;;;;;;;;10279081;28;20069;-65
2021/11/13 19:33:13;;;;;;;135.15;53.00;;;;;;;;;;10286379;28;20080;-66
2021/11/13 19:38:12;;;;;;;162.90;71.53;;;;;;;;;;10291317;28;20073;-64
2021/11/13 19:43:11;;;;;;;175.77;65.68;;;;;;;;;;10284216;28;20072;-65
2021/11/13 19:48:10;;;;;;;170.15;72.20;;;;;;;;;;10294183;28;20072;-66
2021/11/13 19:53:08;;;;;;;118.15;47.65;;;;;;;;;;10290252;28;20103;-66
2021/11/13 19:58:07;;;;;;;269.25;111.43;;;;;;;;;;10280724;28;20082;-66
2021/11/13 20:03:06;;;;;;;133.43;76.50;;;;;;;;;;10284918;28;20068;-65
2021/11/13 20:08:05;;;;;;;98.93;52.28;;;;;;;;;;10281296;28;20068;-66
2021/11/13 20:13:06;;;;;;;233.23;45.33;;;;;;;;;;10280983;28;20345;-66
2021/11/13 20:18:04;;;;;;;101.32;44.17;;;;;;;;;;10292011;28;20045;-66
2021/11/13 20:23:04;;;;;;;111.47;52.17;;;;;;;;;;10283758;28;20498;-66
2021/11/13 20:28:03;;;;;;;86.47;35.97;;;;;;;;;;10285371;28;20221;-66
2021/11/13 20:33:01;;;;;;;98.32;45.97;;;;;;;;;;10293487;28;20084;-65
2021/11/13 20:38:04;;;;;;;131.93;52.30;;;;;;;;;;10284583;28;20568;-66
2021/11/13 20:43:04;;;;;;;215.48;48.90;;;;;;;;;;10291862;28;20455;-66
2021/11/13 20:48:04;;;;;;;185.98;48.50;;;;;;;;;;10278452;28;20087;-66
2021/11/13 20:53:03;;;;;;;159.70;55.28;;;;;;;;;;10279185;28;20069;-65
2021/11/13 20:58:02;;;;;;;165.13;45.13;;;;;;;;;;10277111;28;20065;-66
2021/11/13 21:03:03;;;;;;;149.65;47.67;;;;;;;;;;10283966;28;20068;-66
2021/11/13 21:08:01;;;;;;;161.00;47.60;;;;;;;;;;10286124;28;20076;-65
2021/11/13 21:13:06;;;;;;;164.30;46.33;;;;;;;;;;10284584;28;20051;-65
2021/11/13 21:18:06;;;;;;;144.45;47.25;;;;;;;;;;10278002;28;20068;-65
2021/11/13 21:23:05;;;;;;;141.38;52.20;;;;;;;;;;10296164;28;20079;-66
2021/11/13 21:28:03;;;;;;;155.93;47.97;;;;;;;;;;10286876;28;20493;-66
2021/11/13 21:33:01;;;;;;;118.00;45.97;;;;;;;;;;10283140;28;20083;-65
2021/11/13 21:38:02;;;;;;;95.43;37.10;;;;;;;;;;10288510;28;20048;-66
2021/11/13 21:43:00;;;;;;;84.43;34.75;;;;;;;;;;10276271;28;20078;-66
2021/11/13 21:47:59;;;;;;;74.32;27.77;;;;;;;;;;10299796;28;20099;-65
2021/11/13 21:52:57;;;;;;;60.45;27.30;;;;;;;;;;10278971;28;21233;-66
2021/11/13 21:57:57;;;;;;;69.60;28.65;;;;;;;;;;10277536;28;20061;-66
2021/11/13 22:02:56;;;;;;;83.72;30.50;;;;;;;;;;10274570;28;20505;-66
2021/11/13 22:07:54;;;;;;;143.27;38.28;;;;;;;;;;10276775;28;20069;-66
2021/11/13 22:12:53;;;;;;;81.35;33.65;;;;;;;;;;10275930;28;20545;-66
2021/11/13 22:17:52;;;;;;;95.25;32.92;;;;;;;;;;10276563;28;20079;-66
2021/11/13 22:22:51;;;;;;;98.53;32.92;;;;;;;;;;10277442;28;20517;-65
2021/11/13 22:27:50;;;;;;;89.13;31.90;;;;;;;;;;10285820;28;20068;-66
2021/11/13 22:32:48;;;;;;;60.80;26.90;;;;;;;;;;10288007;28;20084;-66
2021/11/13 22:37:48;;;;;;;55.08;24.98;;;;;;;;;;10284033;28;20065;-66
2021/11/13 22:42:47;;;;;;;66.50;22.58;;;;;;;;;;10273552;28;20485;-66
2021/11/13 22:47:45;;;;;;;65.93;23.00;;;;;;;;;;10294299;28;20467;-67
2021/11/13 22:52:44;;;;;;;45.33;20.88;;;;;;;;;;10288727;28;20506;-66
2021/11/13 22:57:45;;;;;;;59.60;22.92;;;;;;;;;;10272914;28;20100;-65
2021/11/13 23:02:43;;;;;;;76.43;23.77;;;;;;;;;;10274156;28;20445;-66
2021/11/13 23:07:41;;;;;;;50.65;21.85;;;;;;;;;;10280694;28;20423;-66
2021/11/13 23:12:40;;;;;;;40.50;18.35;;;;;;;;;;10283863;28;20072;-66
2021/11/13 23:17:40;;;;;;;38.22;17.55;;;;;;;;;;10283692;28;20654;-66
2021/11/13 23:22:39;;;;;;;38.03;17.73;;;;;;;;;;10283843;28;20076;-66
2021/11/13 23:27:38;;;;;;;40.20;18.27;;;;;;;;;;10279834;28;20083;-66
2021/11/13 23:32:36;;;;;;;35.13;18.95;;;;;;;;;;10277721;28;20485;-66
2021/11/13 23:37:37;;;;;;;74.13;20.92;;;;;;;;;;10277191;28;20065;-65
2021/11/13 23:42:36;;;;;;;46.67;19.10;;;;;;;;;;10279431;28;20072;-66
2021/11/13 23:47:34;;;;;;;49.40;22.80;;;;;;;;;;10296939;28;20045;-66
2021/11/13 23:52:32;;;;;;;102.88;20.45;;;;;;;;;;10300788;28;20071;-66
2021/11/13 23:57:32;;;;;;;130.95;19.15;;;;;;;;;;10285557;28;20060;-66
